createdAt,value
2023-02-03T00:01:50.524Z,2.34
2023-02-03T00:04:17.460Z,2.31
2023-02-03T00:06:44.244Z,2.29
2023-02-03T00:09:11.020Z,2.17
2023-02-03T00:11:37.733Z,2.06
2023-02-03T00:14:05.385Z,2.04
2023-02-03T00:16:32.008Z,2.05
2023-02-03T00:18:58.527Z,2.00
2023-02-03T00:21:25.046Z,2.06
2023-02-03T00:23:51.659Z,2.07
2023-02-03T00:26:18.425Z,2.08
2023-02-03T00:28:45.516Z,2.08
2023-02-03T00:31:17.222Z,2.07
2023-02-03T00:33:44.173Z,2.04
2023-02-03T00:36:11.388Z,1.93
2023-02-03T00:38:37.950Z,1.88
2023-02-03T00:41:04.612Z,1.75
2023-02-03T00:43:31.170Z,1.65
2023-02-03T00:45:57.782Z,1.62
2023-02-03T00:48:24.305Z,1.59
2023-02-03T00:50:50.842Z,1.61
2023-02-03T00:53:17.388Z,1.56
2023-02-03T00:55:46.377Z,1.52
2023-02-03T00:58:12.898Z,1.62
2023-02-03T01:00:39.776Z,1.59
2023-02-03T01:03:06.415Z,1.65
2023-02-03T01:05:32.961Z,1.65
2023-02-03T01:08:03.520Z,1.69
2023-02-03T01:10:30.430Z,1.69
2023-02-03T01:12:56.952Z,1.63
2023-02-03T01:15:23.559Z,1.55
2023-02-03T01:17:50.120Z,1.29
2023-02-03T01:20:17.118Z,1.23
2023-02-03T01:22:43.845Z,1.20
2023-02-03T01:25:11.590Z,1.16
2023-02-03T01:27:38.185Z,1.30
2023-02-03T01:30:05.241Z,1.26
2023-02-03T01:32:31.758Z,1.25
2023-02-03T01:34:58.287Z,1.27
2023-02-03T01:37:24.778Z,1.31
2023-02-03T01:39:51.333Z,1.39
2023-02-03T01:42:17.848Z,1.38
2023-02-03T01:44:51.177Z,1.46
2023-02-03T01:47:29.701Z,1.48
2023-02-03T01:50:22.859Z,1.55
2023-02-03T01:52:57.032Z,1.58
2023-02-03T01:55:28.346Z,1.53
2023-02-03T01:58:20.210Z,1.45
2023-02-03T02:00:49.296Z,1.38
2023-02-03T02:03:20.479Z,1.33
2023-02-03T02:05:57.866Z,1.32
2023-02-03T02:08:24.825Z,1.27
2023-02-03T02:10:51.620Z,1.27
2023-02-03T02:13:19.892Z,1.28
2023-02-03T02:15:55.584Z,1.26
2023-02-03T02:18:25.187Z,1.01
2023-02-03T02:21:28.482Z,0.79
2023-02-03T02:24:24.529Z,0.84
2023-02-03T02:27:00.430Z,0.91
2023-02-03T02:29:35.985Z,0.98
2023-02-03T02:32:02.577Z,0.97
2023-02-03T02:34:49.367Z,1.06
2023-02-03T02:37:38.308Z,1.08
2023-02-03T02:40:04.784Z,1.05
2023-02-03T02:43:00.116Z,1.10
2023-02-03T02:45:34.314Z,1.13
2023-02-03T02:48:20.691Z,1.16
2023-02-03T02:50:53.361Z,1.23
2023-02-03T02:53:22.765Z,1.27
2023-02-03T02:55:51.606Z,1.33
2023-02-03T02:58:20.249Z,1.31
2023-02-03T03:00:47.313Z,1.27
2023-02-03T03:03:19.518Z,1.32
2023-02-03T03:05:54.060Z,1.18
2023-02-03T03:08:29.875Z,1.08
2023-02-03T03:10:58.362Z,1.09
2023-02-03T03:13:31.165Z,1.10
2023-02-03T03:16:01.601Z,1.06
2023-02-03T03:18:33.506Z,1.06
2023-02-03T03:21:06.178Z,1.09
2023-02-03T03:23:40.014Z,1.10
2023-02-03T03:26:22.569Z,1.04
2023-02-03T03:28:52.746Z,1.06
2023-02-03T03:31:20.532Z,1.20
2023-02-03T03:33:48.414Z,1.31
2023-02-03T03:36:21.668Z,1.28
2023-02-03T03:38:56.659Z,1.24
2023-02-03T03:41:48.172Z,1.31
2023-02-03T03:44:16.805Z,1.36
2023-02-03T03:46:50.441Z,1.42
2023-02-03T03:49:18.890Z,1.43
2023-02-03T03:51:54.273Z,1.43
2023-02-03T03:54:23.361Z,1.44
2023-02-03T03:57:05.537Z,1.43
2023-02-03T03:59:35.655Z,1.39
2023-02-03T04:02:04.953Z,1.34
2023-02-03T04:04:35.637Z,1.28
2023-02-03T04:07:02.193Z,1.25
2023-02-03T04:09:28.756Z,1.27
2023-02-03T04:12:01.297Z,1.24
2023-02-03T04:14:30.057Z,1.22
2023-02-03T04:16:57.886Z,1.14
2023-02-03T04:19:24.599Z,1.13
2023-02-03T04:21:51.206Z,1.18
2023-02-03T04:24:18.053Z,1.20
2023-02-03T04:26:44.701Z,1.23
2023-02-03T04:29:11.290Z,1.24
2023-02-03T04:31:38.733Z,1.23
2023-02-03T04:34:06.068Z,1.22
2023-02-03T04:36:32.661Z,1.19
2023-02-03T04:38:59.161Z,1.12
2023-02-03T04:41:25.678Z,1.03
2023-02-03T04:43:52.195Z,0.98
2023-02-03T04:46:19.022Z,0.93
2023-02-03T04:48:45.560Z,0.83
2023-02-03T04:51:12.045Z,0.89
2023-02-03T04:53:38.589Z,0.95
2023-02-03T04:56:05.450Z,0.96
2023-02-03T04:58:32.011Z,0.99
2023-02-03T05:00:58.695Z,1.03
2023-02-03T05:03:26.450Z,1.07
2023-02-03T05:05:56.341Z,1.07
2023-02-03T05:08:22.832Z,1.05
2023-02-03T05:10:49.382Z,0.99
2023-02-03T05:13:15.906Z,0.85
2023-02-03T05:15:42.417Z,0.66
2023-02-03T05:18:08.931Z,0.69
2023-02-03T05:20:35.422Z,0.57
2023-02-03T05:23:02.015Z,0.58
2023-02-03T05:25:28.618Z,0.69
2023-02-03T05:27:55.175Z,0.70
2023-02-03T05:30:21.719Z,0.60
2023-02-03T05:32:49.888Z,0.55
2023-02-03T05:35:16.477Z,0.44
2023-02-03T05:37:46.303Z,0.48
2023-02-03T05:40:32.520Z,0.51
2023-02-03T05:42:59.110Z,0.60
2023-02-03T05:45:25.714Z,0.53
2023-02-03T05:47:52.269Z,0.53
2023-02-03T05:50:18.833Z,0.49
2023-02-03T05:52:45.354Z,0.38
2023-02-03T05:55:11.911Z,0.29
2023-02-03T05:57:38.429Z,0.18
2023-02-03T06:00:07.311Z,0.25
2023-02-03T06:02:33.820Z,0.17
2023-02-03T06:05:00.358Z,0.23
2023-02-03T06:07:26.913Z,0.25
2023-02-03T06:09:53.634Z,0.26
2023-02-03T06:12:20.146Z,0.30
2023-02-03T06:14:46.652Z,0.32
2023-02-03T06:17:13.168Z,0.28
2023-02-03T06:19:39.715Z,0.40
2023-02-03T06:22:06.233Z,0.44
2023-02-03T06:24:32.729Z,0.47
2023-02-03T06:26:59.269Z,0.50
2023-02-03T06:29:25.799Z,0.56
2023-02-03T06:31:52.516Z,0.59
2023-02-03T06:34:19.205Z,0.67
2023-02-03T06:36:45.799Z,0.68
2023-02-03T06:39:12.300Z,0.70
2023-02-03T06:41:38.808Z,0.80
2023-02-03T06:44:05.402Z,0.88
2023-02-03T06:46:33.847Z,0.89
2023-02-03T06:49:00.446Z,0.96
2023-02-03T06:51:27.067Z,1.07
2023-02-03T06:53:53.585Z,1.29
2023-02-03T06:56:20.111Z,1.42
2023-02-03T06:58:46.619Z,1.55
2023-02-03T07:01:13.232Z,1.65
2023-02-03T07:03:39.807Z,1.73
2023-02-03T07:06:06.657Z,1.81
2023-02-03T07:08:33.451Z,1.98
2023-02-03T07:11:00.002Z,1.98
2023-02-03T07:13:26.576Z,2.29
2023-02-03T07:15:53.188Z,2.28
2023-02-03T07:18:45.790Z,2.66
2023-02-03T07:21:11.574Z,2.91
2023-02-03T07:23:38.086Z,3.00
2023-02-03T07:26:06.573Z,3.38
2023-02-03T07:28:34.219Z,3.50
2023-02-03T07:31:01.180Z,3.36
2023-02-03T07:33:28.400Z,3.37
2023-02-03T07:35:56.584Z,3.51
2023-02-03T07:38:23.922Z,3.67
2023-02-03T07:40:50.601Z,3.97
2023-02-03T07:43:17.515Z,4.20
2023-02-03T07:45:44.629Z,4.43
2023-02-03T07:48:12.247Z,4.69
2023-02-03T07:50:39.760Z,4.48
2023-02-03T07:53:09.285Z,4.31
2023-02-03T07:55:39.066Z,4.11
2023-02-03T07:58:06.360Z,3.85
2023-02-03T08:00:33.463Z,4.09
2023-02-03T08:03:00.754Z,4.37
2023-02-03T08:05:27.514Z,4.39
2023-02-03T08:07:54.188Z,4.30
2023-02-03T08:10:20.972Z,4.38
2023-02-03T08:12:48.142Z,4.58
2023-02-03T08:15:15.174Z,4.75
2023-02-03T08:17:42.207Z,5.11
2023-02-03T08:20:10.070Z,5.51
2023-02-03T08:22:36.625Z,5.87
2023-02-03T08:25:03.984Z,6.07
2023-02-03T08:27:31.639Z,6.02
2023-02-03T08:29:58.581Z,5.92
2023-02-03T08:32:25.688Z,5.89
2023-02-03T08:34:52.688Z,6.28
2023-02-03T08:37:22.676Z,6.52
2023-02-03T08:39:49.373Z,7.04
2023-02-03T08:42:16.382Z,7.45
2023-02-03T08:44:44.113Z,7.68
2023-02-03T08:47:11.506Z,7.88
2023-02-03T08:49:39.573Z,7.83
2023-02-03T08:52:08.483Z,7.69
2023-02-03T08:54:35.043Z,7.77
2023-02-03T08:57:01.786Z,8.13
2023-02-03T08:59:29.290Z,8.67
2023-02-03T09:01:56.241Z,8.89
2023-02-03T09:04:25.626Z,9.41
2023-02-03T09:06:56.229Z,9.73
2023-02-03T09:09:23.608Z,10.13
2023-02-03T09:11:50.314Z,10.46
2023-02-03T09:14:16.826Z,10.75
2023-02-03T09:16:43.535Z,10.95
2023-02-03T09:19:10.256Z,10.90
2023-02-03T09:21:37.534Z,10.92
2023-02-03T09:24:13.736Z,10.42
2023-02-03T09:26:40.421Z,10.70
2023-02-03T09:29:07.813Z,10.94
2023-02-03T09:31:34.399Z,11.42
2023-02-03T09:34:00.957Z,12.15
2023-02-03T09:36:27.478Z,12.18
2023-02-03T09:38:54.063Z,12.47
2023-02-03T09:41:37.273Z,12.82
2023-02-03T09:44:04.782Z,12.77
2023-02-03T09:46:41.021Z,12.05
2023-02-03T09:49:33.461Z,12.28
2023-02-03T09:52:08.685Z,12.65
2023-02-03T09:54:43.408Z,12.76
2023-02-03T09:57:18.470Z,12.64
2023-02-03T09:59:45.029Z,12.77
2023-02-03T10:02:36.066Z,12.47
2023-02-03T10:05:25.287Z,11.95
2023-02-03T10:08:02.453Z,12.02
2023-02-03T10:10:45.359Z,12.07
2023-02-03T10:13:17.440Z,12.06
2023-02-03T10:16:04.157Z,12.03
2023-02-03T10:18:45.813Z,12.20
2023-02-03T10:21:35.152Z,12.05
2023-02-03T10:24:06.113Z,12.12
2023-02-03T10:26:32.676Z,12.20
2023-02-03T10:29:21.414Z,12.39
2023-02-03T10:31:48.517Z,12.73
2023-02-03T10:34:18.022Z,12.81
2023-02-03T10:36:57.445Z,12.88
2023-02-03T10:39:26.758Z,13.00
2023-02-03T10:41:54.023Z,13.04
2023-02-03T10:44:24.209Z,12.88
2023-02-03T10:46:50.791Z,13.20
2023-02-03T10:49:19.087Z,13.15
2023-02-03T10:51:51.955Z,13.36
2023-02-03T10:54:38.174Z,13.60
2023-02-03T10:57:14.760Z,13.33
2023-02-03T10:59:44.260Z,13.76
2023-02-03T11:02:21.603Z,13.90
2023-02-03T11:04:48.224Z,14.03
2023-02-03T11:07:26.879Z,14.17
2023-02-03T11:09:53.277Z,14.29
2023-02-03T11:12:20.150Z,14.42
2023-02-03T11:14:51.896Z,14.27
2023-02-03T11:17:27.520Z,13.96
2023-02-03T11:20:01.310Z,13.89
2023-02-03T11:22:35.668Z,14.08
2023-02-03T11:25:04.971Z,13.94
2023-02-03T11:27:33.613Z,13.77
2023-02-03T11:30:18.655Z,13.70
2023-02-03T11:32:47.976Z,13.70
2023-02-03T11:35:24.218Z,13.77
2023-02-03T11:37:56.243Z,13.78
2023-02-03T11:40:33.859Z,13.77
2023-02-03T11:43:04.335Z,13.76
2023-02-03T11:45:44.464Z,13.97
2023-02-03T11:48:10.971Z,13.98
2023-02-03T11:50:55.710Z,14.14
2023-02-03T11:53:55.245Z,14.14
2023-02-03T11:56:55.114Z,13.84
2023-02-03T11:59:41.078Z,13.69
2023-02-03T12:02:33.598Z,13.80
2023-02-03T12:05:15.358Z,13.90
2023-02-03T12:07:41.926Z,14.14
2023-02-03T12:10:30.659Z,13.68
2023-02-03T12:13:10.410Z,13.74
2023-02-03T12:15:50.401Z,13.93
2023-02-03T12:18:26.052Z,13.80
2023-02-03T12:21:00.946Z,14.03
2023-02-03T12:24:04.431Z,13.76
2023-02-03T12:26:41.462Z,13.61
2023-02-03T12:29:17.032Z,13.37
2023-02-03T12:32:14.283Z,13.28
2023-02-03T12:34:50.705Z,13.19
2023-02-03T12:37:43.869Z,12.88
2023-02-03T12:40:26.588Z,12.96
2023-02-03T12:43:02.851Z,13.12
2023-02-03T12:45:36.611Z,13.09
2023-02-03T12:48:12.012Z,13.06
2023-02-03T12:50:54.044Z,13.07
2023-02-03T12:53:29.178Z,13.05
2023-02-03T12:56:10.984Z,12.43
2023-02-03T12:58:57.429Z,12.40
2023-02-03T13:01:34.438Z,12.37
2023-02-03T13:04:06.539Z,12.29
2023-02-03T13:07:03.997Z,12.17
2023-02-03T13:10:01.549Z,12.09
2023-02-03T13:12:42.825Z,11.87
2023-02-03T13:15:27.320Z,11.88
2023-02-03T13:18:21.920Z,11.70
2023-02-03T13:20:48.558Z,11.63
2023-02-03T13:23:16.036Z,11.45
2023-02-03T13:25:57.834Z,11.40
2023-02-03T13:29:08.656Z,11.02
2023-02-03T13:31:56.545Z,11.03
2023-02-03T13:34:28.857Z,10.88
2023-02-03T13:37:21.733Z,10.98
2023-02-03T13:39:48.258Z,11.04
2023-02-03T13:42:21.533Z,11.09
2023-02-03T13:44:52.921Z,11.13
2023-02-03T13:47:25.932Z,11.12
2023-02-03T13:50:03.099Z,11.18
2023-02-03T13:52:35.874Z,11.02
2023-02-03T13:55:03.510Z,11.09
2023-02-03T13:57:34.604Z,11.10
2023-02-03T14:00:03.573Z,11.08
2023-02-03T14:02:42.044Z,11.05
2023-02-03T14:05:39.303Z,11.16
2023-02-03T14:08:27.729Z,11.17
2023-02-03T14:11:31.935Z,11.11
2023-02-03T14:14:07.579Z,10.98
2023-02-03T14:16:48.530Z,11.04
2023-02-03T14:19:30.321Z,11.01
2023-02-03T14:22:02.717Z,10.89
2023-02-03T14:24:38.366Z,10.88
2023-02-03T14:27:23.965Z,10.79
2023-02-03T14:30:22.835Z,10.74
2023-02-03T14:32:51.987Z,10.67
2023-02-03T14:35:40.692Z,10.35
2023-02-03T14:38:09.192Z,10.44
2023-02-03T14:40:46.714Z,10.37
2023-02-03T14:43:38.198Z,10.39
2023-02-03T14:46:10.717Z,10.35
2023-02-03T14:48:40.171Z,10.50
2023-02-03T14:51:29.191Z,10.46
2023-02-03T14:54:31.032Z,10.34
2023-02-03T14:57:21.671Z,10.30
2023-02-03T15:00:06.850Z,10.27
2023-02-03T15:02:34.631Z,10.12
2023-02-03T15:05:13.362Z,10.02
2023-02-03T15:07:48.582Z,9.88
2023-02-03T15:10:17.352Z,9.67
2023-02-03T15:12:52.476Z,9.68
2023-02-03T15:15:22.071Z,9.62
2023-02-03T15:17:50.204Z,9.61
2023-02-03T15:20:31.632Z,9.48
2023-02-03T15:22:58.560Z,9.42
2023-02-03T15:25:28.009Z,9.35
2023-02-03T15:27:54.709Z,9.25
2023-02-03T15:30:27.580Z,9.16
2023-02-03T15:33:05.413Z,9.08
2023-02-03T15:35:34.020Z,9.02
2023-02-03T15:38:04.444Z,8.94
2023-02-03T15:40:38.583Z,8.81
2023-02-03T15:43:16.470Z,8.77
2023-02-03T15:46:03.323Z,8.70
2023-02-03T15:48:48.070Z,8.67
2023-02-03T15:51:18.183Z,8.59
2023-02-03T15:53:52.313Z,8.55
2023-02-03T15:56:28.420Z,8.48
2023-02-03T15:58:55.054Z,8.46
2023-02-03T16:01:24.011Z,8.45
2023-02-03T16:03:54.189Z,8.40
2023-02-03T16:06:27.540Z,8.36
2023-02-03T16:08:55.498Z,8.27
2023-02-03T16:11:22.178Z,8.21
2023-02-03T16:13:48.750Z,8.11
2023-02-03T16:16:18.085Z,8.08
2023-02-03T16:18:56.959Z,7.97
2023-02-03T16:21:56.957Z,7.89
2023-02-03T16:24:32.274Z,7.84
2023-02-03T16:27:25.045Z,7.67
2023-02-03T16:30:25.520Z,7.43
2023-02-03T16:33:32.904Z,7.25
2023-02-03T16:36:28.320Z,7.17
2023-02-03T16:39:13.954Z,7.12
2023-02-03T16:41:59.392Z,7.05
2023-02-03T16:44:44.784Z,6.97
2023-02-03T16:47:43.357Z,6.97
2023-02-03T16:50:40.140Z,6.93
2023-02-03T16:53:12.509Z,6.88
2023-02-03T16:55:39.089Z,6.84
2023-02-03T16:58:05.782Z,6.83
2023-02-03T17:00:32.583Z,6.76
2023-02-03T17:03:02.992Z,6.66
2023-02-03T17:05:32.417Z,6.55
2023-02-03T17:07:59.192Z,6.45
2023-02-03T17:10:26.504Z,6.50
2023-02-03T17:12:53.063Z,6.48
2023-02-03T17:15:19.611Z,6.36
2023-02-03T17:17:46.132Z,6.30
2023-02-03T17:20:12.893Z,6.35
2023-02-03T17:22:39.506Z,6.37
2023-02-03T17:25:06.409Z,6.35
2023-02-03T17:27:33.119Z,6.35
2023-02-03T17:29:59.709Z,6.30
2023-02-03T17:32:26.307Z,6.27
2023-02-03T17:34:52.874Z,6.09
2023-02-03T17:37:19.420Z,6.02
2023-02-03T17:53:29.869Z,5.37
2023-02-03T17:55:56.465Z,5.36
2023-02-03T17:58:23.084Z,5.31
2023-02-03T18:00:49.910Z,5.25
2023-02-03T18:03:16.574Z,5.34
2023-02-03T18:05:52.683Z,5.34
2023-02-03T18:08:20.580Z,5.32
2023-02-03T18:10:51.218Z,5.36
2023-02-03T18:13:18.371Z,5.25
2023-02-03T18:15:44.973Z,5.22
2023-02-03T18:18:11.620Z,5.13
2023-02-03T18:20:38.231Z,5.08
2023-02-03T18:23:04.830Z,5.03
2023-02-03T18:25:31.521Z,4.98
2023-02-03T18:27:58.245Z,4.89
2023-02-03T18:30:25.038Z,4.85
2023-02-03T18:32:52.632Z,4.86
2023-02-03T18:35:19.527Z,4.88
2023-02-03T18:37:46.279Z,4.91
2023-02-03T18:40:13.059Z,4.92
2023-02-03T18:42:39.754Z,4.93
2023-02-03T18:45:06.950Z,4.93
2023-02-03T18:47:34.151Z,4.88
2023-02-03T18:50:00.911Z,4.88
2023-02-03T18:52:27.593Z,4.87
2023-02-03T18:54:54.353Z,4.83
2023-02-03T18:57:22.571Z,4.79
2023-02-03T18:59:49.722Z,4.73
2023-02-03T19:02:16.441Z,4.74
2023-02-03T19:04:43.477Z,4.71
2023-02-03T19:07:12.334Z,4.68
2023-02-03T19:09:40.056Z,4.60
2023-02-03T19:12:07.872Z,4.57
2023-02-03T19:14:35.555Z,4.53
2023-02-03T19:17:03.643Z,4.54
2023-02-03T19:19:30.393Z,4.51
2023-02-03T19:21:58.552Z,4.52
2023-02-03T19:24:26.857Z,4.51
2023-02-03T19:26:53.877Z,4.45
2023-02-03T19:29:20.520Z,4.55
2023-02-03T19:31:47.259Z,4.54
2023-02-03T19:34:17.388Z,4.56
2023-02-03T19:36:44.190Z,4.55
2023-02-03T19:39:11.034Z,4.53
2023-02-03T19:41:37.594Z,4.53
2023-02-03T19:44:05.931Z,4.52
2023-02-03T19:46:38.229Z,4.49
2023-02-03T19:49:13.249Z,4.46
2023-02-03T19:51:41.072Z,4.37
2023-02-03T19:54:10.667Z,4.32
2023-02-03T19:56:37.367Z,4.27
2023-02-03T19:59:04.689Z,4.22
2023-02-03T20:01:31.507Z,4.20
2023-02-03T20:03:58.560Z,4.18
2023-02-03T20:06:25.977Z,4.19
2023-02-03T20:08:52.951Z,4.19
2023-02-03T20:11:20.420Z,4.17
2023-02-03T20:13:47.184Z,4.18
2023-02-03T20:16:14.115Z,4.15
2023-02-03T20:18:40.885Z,4.26
2023-02-03T20:21:07.472Z,4.27
2023-02-03T20:23:34.216Z,4.23
2023-02-03T20:26:01.685Z,4.19
2023-02-03T20:28:29.214Z,4.20
2023-02-03T20:30:58.246Z,4.17
2023-02-03T20:33:27.574Z,4.14
2023-02-03T20:35:55.506Z,4.04
2023-02-03T20:38:22.151Z,4.08
2023-02-03T20:40:49.317Z,4.08
2023-02-03T20:43:25.108Z,4.07
2023-02-03T20:45:52.594Z,4.09
2023-02-03T20:48:22.422Z,4.20
2023-02-03T20:50:50.226Z,4.13
2023-02-03T20:53:19.870Z,4.24
2023-02-03T20:55:47.290Z,4.23
2023-02-03T20:58:23.403Z,4.23
2023-02-03T21:00:50.830Z,4.21
2023-02-03T21:03:38.256Z,4.18
2023-02-03T21:06:23.238Z,4.15
2023-02-03T21:08:49.953Z,4.12
2023-02-03T21:11:19.243Z,4.11
2023-02-03T21:13:47.561Z,4.10
2023-02-03T21:16:28.664Z,4.08
2023-02-03T21:19:00.409Z,4.02
2023-02-03T21:21:39.627Z,3.96
2023-02-03T21:24:29.537Z,3.97
2023-02-03T21:26:57.520Z,3.78
2023-02-03T21:29:29.054Z,3.62
2023-02-03T21:31:56.130Z,3.48
2023-02-03T21:34:34.390Z,3.47
2023-02-03T21:37:41.439Z,3.43
2023-02-03T21:40:18.260Z,3.30
2023-02-03T21:42:46.547Z,3.44
2023-02-03T21:45:21.810Z,3.51
2023-02-03T21:47:51.412Z,3.45
2023-02-03T21:50:35.900Z,3.46
2023-02-03T21:53:05.246Z,3.49
2023-02-03T21:55:31.821Z,3.46
2023-02-03T21:57:58.522Z,3.41
2023-02-03T22:00:43.482Z,3.33
2023-02-03T22:03:22.639Z,3.31
2023-02-03T22:05:49.301Z,3.24
2023-02-03T22:08:23.122Z,3.34
2023-02-03T22:10:50.232Z,3.29
2023-02-03T22:13:17.882Z,3.25
2023-02-03T22:15:44.531Z,3.17
2023-02-03T22:18:11.086Z,3.08
2023-02-03T22:20:37.583Z,3.05
2023-02-03T22:23:04.323Z,3.04
2023-02-03T22:25:30.982Z,3.04
2023-02-03T22:27:57.680Z,2.94
2023-02-03T22:30:24.372Z,2.86
2023-02-03T22:32:50.900Z,2.78
2023-02-03T22:35:17.511Z,2.97
2023-02-03T22:37:44.176Z,2.99
2023-02-03T22:40:11.434Z,3.08
2023-02-03T22:42:37.922Z,3.05
2023-02-03T22:45:05.141Z,2.98
2023-02-03T22:47:31.673Z,2.91
2023-02-03T22:49:58.238Z,2.89
2023-02-03T22:52:24.786Z,2.82
2023-02-03T22:54:51.344Z,2.73
2023-02-03T22:57:17.940Z,2.68
2023-02-03T22:59:44.498Z,2.64
2023-02-03T23:02:11.074Z,2.65
2023-02-03T23:04:37.648Z,2.58
2023-02-03T23:07:04.229Z,2.56
2023-02-03T23:09:30.981Z,2.50
2023-02-03T23:11:57.616Z,2.45
2023-02-03T23:14:24.189Z,2.35
2023-02-03T23:16:50.875Z,2.28
2023-02-03T23:19:17.505Z,2.34
2023-02-03T23:21:44.080Z,2.31
2023-02-03T23:24:10.673Z,2.20
2023-02-03T23:26:37.205Z,2.21
2023-02-03T23:29:03.796Z,2.18
2023-02-03T23:31:30.420Z,2.13
2023-02-03T23:34:15.714Z,2.09
2023-02-03T23:36:42.218Z,2.05
2023-02-03T23:39:08.775Z,2.03
2023-02-03T23:41:35.433Z,2.01
2023-02-03T23:44:01.963Z,2.01
2023-02-03T23:46:28.731Z,1.98
2023-02-03T23:48:55.319Z,1.98
2023-02-03T23:51:21.924Z,1.95
2023-02-03T23:53:48.429Z,1.88
2023-02-03T23:56:16.112Z,1.87
2023-02-03T23:58:42.612Z,1.85
